sensor_id;sensor_type;location;lat;lon;timestamp;P1;P2;P0
46839;PMS5003;70678;50.710;5.026;2023-06-14T00:00:06;13;13;
46839;PMS5003;70678;50.710;5.026;2023-06-14T00:02:38;14;14;
46839;PMS5003;70678;50.710;5.026;2023-06-14T00:05:06;18;18;
46839;PMS5003;70678;50.710;5.026;2023-06-14T00:07:35;14;14;
46839;PMS5003;70678;50.710;5.026;2023-06-14T00:10:05;16;16;
46839;PMS5003;70678;50.710;5.026;2023-06-14T00:12:33;13;13;
46839;PMS5003;70678;50.710;5.026;2023-06-14T00:15:02;10;10;
46839;PMS5003;70678;50.710;5.026;2023-06-14T00:17:31;16;16;
46839;PMS5003;70678;50.710;5.026;2023-06-14T00:19:59;18;18;
46839;PMS5003;70678;50.710;5.026;2023-06-14T00:22:28;11;11;
46839;PMS5003;70678;50.710;5.026;2023-06-14T00:24:57;16;16;
46839;PMS5003;70678;50.710;5.026;2023-06-14T00:27:27;14;14;
46839;PMS5003;70678;50.710;5.026;2023-06-14T00:29:55;15;15;
46839;PMS5003;70678;50.710;5.026;2023-06-14T00:32:22;14;14;
46839;PMS5003;70678;50.710;5.026;2023-06-14T00:34:50;19;19;
46839;PMS5003;70678;50.710;5.026;2023-06-14T00:37:18;13;13;
46839;PMS5003;70678;50.710;5.026;2023-06-14T00:39:46;14;14;
46839;PMS5003;70678;50.710;5.026;2023-06-14T00:42:22;16;16;
46839;PMS5003;70678;50.710;5.026;2023-06-14T00:44:53;21;21;
46839;PMS5003;70678;50.710;5.026;2023-06-14T00:47:22;19;19;
46839;PMS5003;70678;50.710;5.026;2023-06-14T00:49:50;15;15;
46839;PMS5003;70678;50.710;5.026;2023-06-14T00:52:18;17;17;
46839;PMS5003;70678;50.710;5.026;2023-06-14T00:54:46;15;15;
46839;PMS5003;70678;50.710;5.026;2023-06-14T00:57:13;16;16;
46839;PMS5003;70678;50.710;5.026;2023-06-14T00:59:42;18;18;
46839;PMS5003;70678;50.710;5.026;2023-06-14T01:02:12;13;13;
46839;PMS5003;70678;50.710;5.026;2023-06-14T01:04:41;17;17;
46839;PMS5003;70678;50.710;5.026;2023-06-14T01:07:12;15;15;
46839;PMS5003;70678;50.710;5.026;2023-06-14T01:09:50;15;15;
46839;PMS5003;70678;50.710;5.026;2023-06-14T01:12:24;15;15;
46839;PMS5003;70678;50.710;5.026;2023-06-14T01:14:58;14;14;
46839;PMS5003;70678;50.710;5.026;2023-06-14T01:17:27;17;17;
46839;PMS5003;70678;50.710;5.026;2023-06-14T01:19:54;16;16;
46839;PMS5003;70678;50.710;5.026;2023-06-14T01:22:24;16;16;
46839;PMS5003;70678;50.710;5.026;2023-06-14T01:24:53;12;12;
46839;PMS5003;70678;50.710;5.026;2023-06-14T01:27:21;14;14;
46839;PMS5003;70678;50.710;5.026;2023-06-14T01:29:50;14;14;
46839;PMS5003;70678;50.710;5.026;2023-06-14T01:32:19;7;7;
46839;PMS5003;70678;50.710;5.026;2023-06-14T01:34:47;13;13;
46839;PMS5003;70678;50.710;5.026;2023-06-14T01:37:15;17;17;
46839;PMS5003;70678;50.710;5.026;2023-06-14T01:39:45;13;13;
46839;PMS5003;70678;50.710;5.026;2023-06-14T01:42:12;14;14;
46839;PMS5003;70678;50.710;5.026;2023-06-14T01:44:41;13;13;
46839;PMS5003;70678;50.710;5.026;2023-06-14T01:47:10;13;13;
46839;PMS5003;70678;50.710;5.026;2023-06-14T01:49:39;16;16;
46839;PMS5003;70678;50.710;5.026;2023-06-14T01:52:08;21;21;
46839;PMS5003;70678;50.710;5.026;2023-06-14T01:54:39;16;16;
46839;PMS5003;70678;50.710;5.026;2023-06-14T01:57:08;17;17;
46839;PMS5003;70678;50.710;5.026;2023-06-14T01:59:35;12;12;
46839;PMS5003;70678;50.710;5.026;2023-06-14T02:02:04;19;19;
46839;PMS5003;70678;50.710;5.026;2023-06-14T02:04:32;12;12;
46839;PMS5003;70678;50.710;5.026;2023-06-14T02:07:00;14;14;
46839;PMS5003;70678;50.710;5.026;2023-06-14T02:09:28;12;12;
46839;PMS5003;70678;50.710;5.026;2023-06-14T02:11:57;17;17;
46839;PMS5003;70678;50.710;5.026;2023-06-14T02:14:27;15;15;
46839;PMS5003;70678;50.710;5.026;2023-06-14T02:16:56;18;18;
46839;PMS5003;70678;50.710;5.026;2023-06-14T02:19:24;12;12;
46839;PMS5003;70678;50.710;5.026;2023-06-14T02:21:52;12;12;
46839;PMS5003;70678;50.710;5.026;2023-06-14T02:24:21;15;15;
46839;PMS5003;70678;50.710;5.026;2023-06-14T02:26:48;19;19;
46839;PMS5003;70678;50.710;5.026;2023-06-14T02:29:16;18;18;
46839;PMS5003;70678;50.710;5.026;2023-06-14T02:31:44;16;16;
46839;PMS5003;70678;50.710;5.026;2023-06-14T02:34:14;15;15;
46839;PMS5003;70678;50.710;5.026;2023-06-14T02:36:41;17;17;
46839;PMS5003;70678;50.710;5.026;2023-06-14T02:39:09;18;18;
46839;PMS5003;70678;50.710;5.026;2023-06-14T02:41:36;17;17;
46839;PMS5003;70678;50.710;5.026;2023-06-14T02:44:04;20;20;
46839;PMS5003;70678;50.710;5.026;2023-06-14T02:46:34;10;10;
46839;PMS5003;70678;50.710;5.026;2023-06-14T02:49:03;15;15;
46839;PMS5003;70678;50.710;5.026;2023-06-14T02:51:31;14;14;
46839;PMS5003;70678;50.710;5.026;2023-06-14T02:53:59;16;16;
46839;PMS5003;70678;50.710;5.026;2023-06-14T02:56:29;15;15;
46839;PMS5003;70678;50.710;5.026;2023-06-14T02:58:59;17;17;
46839;PMS5003;70678;50.710;5.026;2023-06-14T03:01:29;8;8;
46839;PMS5003;70678;50.710;5.026;2023-06-14T03:03:56;13;13;
46839;PMS5003;70678;50.710;5.026;2023-06-14T03:06:24;15;15;
46839;PMS5003;70678;50.710;5.026;2023-06-14T03:08:51;14;14;
46839;PMS5003;70678;50.710;5.026;2023-06-14T03:11:19;13;13;
46839;PMS5003;70678;50.710;5.026;2023-06-14T03:13:47;16;16;
46839;PMS5003;70678;50.710;5.026;2023-06-14T03:16:16;11;11;
46839;PMS5003;70678;50.710;5.026;2023-06-14T03:18:45;17;17;
46839;PMS5003;70678;50.710;5.026;2023-06-14T03:21:13;18;18;
46839;PMS5003;70678;50.710;5.026;2023-06-14T03:23:40;14;14;
46839;PMS5003;70678;50.710;5.026;2023-06-14T03:26:09;12;12;
46839;PMS5003;70678;50.710;5.026;2023-06-14T03:28:37;17;17;
46839;PMS5003;70678;50.710;5.026;2023-06-14T03:31:04;18;18;
46839;PMS5003;70678;50.710;5.026;2023-06-14T03:33:32;19;19;
46839;PMS5003;70678;50.710;5.026;2023-06-14T03:36:00;19;19;
46839;PMS5003;70678;50.710;5.026;2023-06-14T03:38:29;20;20;
46839;PMS5003;70678;50.710;5.026;2023-06-14T03:40:56;15;15;
46839;PMS5003;70678;50.710;5.026;2023-06-14T03:43:24;19;19;
46839;PMS5003;70678;50.710;5.026;2023-06-14T03:45:52;18;18;
46839;PMS5003;70678;50.710;5.026;2023-06-14T03:48:19;16;16;
46839;PMS5003;70678;50.710;5.026;2023-06-14T03:50:47;18;18;
46839;PMS5003;70678;50.710;5.026;2023-06-14T03:53:14;16;16;
46839;PMS5003;70678;50.710;5.026;2023-06-14T03:55:42;17;17;
46839;PMS5003;70678;50.710;5.026;2023-06-14T03:58:10;16;16;
46839;PMS5003;70678;50.710;5.026;2023-06-14T04:00:39;19;19;
46839;PMS5003;70678;50.710;5.026;2023-06-14T04:03:06;18;18;
46839;PMS5003;70678;50.710;5.026;2023-06-14T04:05:36;17;17;
46839;PMS5003;70678;50.710;5.026;2023-06-14T04:08:04;13;13;
46839;PMS5003;70678;50.710;5.026;2023-06-14T04:10:32;16;16;
46839;PMS5003;70678;50.710;5.026;2023-06-14T04:13:00;18;18;
46839;PMS5003;70678;50.710;5.026;2023-06-14T04:15:28;20;20;
46839;PMS5003;70678;50.710;5.026;2023-06-14T04:17:55;16;16;
46839;PMS5003;70678;50.710;5.026;2023-06-14T04:20:23;15;15;
46839;PMS5003;70678;50.710;5.026;2023-06-14T04:22:52;13;13;
46839;PMS5003;70678;50.710;5.026;2023-06-14T04:25:19;19;19;
46839;PMS5003;70678;50.710;5.026;2023-06-14T04:27:46;19;19;
46839;PMS5003;70678;50.710;5.026;2023-06-14T04:30:14;16;16;
46839;PMS5003;70678;50.710;5.026;2023-06-14T04:32:43;15;15;
46839;PMS5003;70678;50.710;5.026;2023-06-14T04:35:13;12;12;
46839;PMS5003;70678;50.710;5.026;2023-06-14T04:37:41;7;7;
46839;PMS5003;70678;50.710;5.026;2023-06-14T04:40:10;15;15;
46839;PMS5003;70678;50.710;5.026;2023-06-14T04:42:39;13;13;
46839;PMS5003;70678;50.710;5.026;2023-06-14T04:45:08;13;13;
46839;PMS5003;70678;50.710;5.026;2023-06-14T04:47:36;17;17;
46839;PMS5003;70678;50.710;5.026;2023-06-14T04:50:05;16;16;
46839;PMS5003;70678;50.710;5.026;2023-06-14T04:52:36;11;11;
46839;PMS5003;70678;50.710;5.026;2023-06-14T04:55:04;10;10;
46839;PMS5003;70678;50.710;5.026;2023-06-14T04:57:32;17;17;
46839;PMS5003;70678;50.710;5.026;2023-06-14T05:00:01;18;18;
46839;PMS5003;70678;50.710;5.026;2023-06-14T05:02:29;14;14;
46839;PMS5003;70678;50.710;5.026;2023-06-14T05:04:57;15;15;
46839;PMS5003;70678;50.710;5.026;2023-06-14T05:07:25;17;17;
46839;PMS5003;70678;50.710;5.026;2023-06-14T05:09:52;14;14;
46839;PMS5003;70678;50.710;5.026;2023-06-14T05:12:22;15;15;
46839;PMS5003;70678;50.710;5.026;2023-06-14T05:14:50;30;30;
46839;PMS5003;70678;50.710;5.026;2023-06-14T05:17:18;25;25;
46839;PMS5003;70678;50.710;5.026;2023-06-14T05:19:46;17;17;
46839;PMS5003;70678;50.710;5.026;2023-06-14T05:22:14;17;17;
46839;PMS5003;70678;50.710;5.026;2023-06-14T05:24:44;20;20;
46839;PMS5003;70678;50.710;5.026;2023-06-14T05:27:12;18;18;
46839;PMS5003;70678;50.710;5.026;2023-06-14T05:29:40;16;16;
46839;PMS5003;70678;50.710;5.026;2023-06-14T05:32:09;13;13;
46839;PMS5003;70678;50.710;5.026;2023-06-14T05:34:39;16;16;
46839;PMS5003;70678;50.710;5.026;2023-06-14T05:37:08;12;12;
46839;PMS5003;70678;50.710;5.026;2023-06-14T05:39:37;10;10;
46839;PMS5003;70678;50.710;5.026;2023-06-14T05:42:06;16;16;
46839;PMS5003;70678;50.710;5.026;2023-06-14T05:44:34;21;21;
46839;PMS5003;70678;50.710;5.026;2023-06-14T05:47:02;14;14;
46839;PMS5003;70678;50.710;5.026;2023-06-14T05:49:30;13;13;
46839;PMS5003;70678;50.710;5.026;2023-06-14T05:52:00;15;15;
46839;PMS5003;70678;50.710;5.026;2023-06-14T05:54:29;20;20;
46839;PMS5003;70678;50.710;5.026;2023-06-14T05:56:57;21;21;
46839;PMS5003;70678;50.710;5.026;2023-06-14T05:59:25;16;16;
46839;PMS5003;70678;50.710;5.026;2023-06-14T06:01:53;20;20;
46839;PMS5003;70678;50.710;5.026;2023-06-14T06:04:20;17;17;
46839;PMS5003;70678;50.710;5.026;2023-06-14T06:06:51;16;16;
46839;PMS5003;70678;50.710;5.026;2023-06-14T06:09:19;21;21;
46839;PMS5003;70678;50.710;5.026;2023-06-14T06:11:47;21;21;
46839;PMS5003;70678;50.710;5.026;2023-06-14T06:14:14;11;11;
46839;PMS5003;70678;50.710;5.026;2023-06-14T06:16:42;21;21;
46839;PMS5003;70678;50.710;5.026;2023-06-14T06:19:10;16;16;
46839;PMS5003;70678;50.710;5.026;2023-06-14T06:21:37;22;22;
46839;PMS5003;70678;50.710;5.026;2023-06-14T06:24:05;17;17;
46839;PMS5003;70678;50.710;5.026;2023-06-14T06:26:34;12;12;
46839;PMS5003;70678;50.710;5.026;2023-06-14T06:29:01;20;20;
46839;PMS5003;70678;50.710;5.026;2023-06-14T06:31:29;17;17;
46839;PMS5003;70678;50.710;5.026;2023-06-14T06:33:56;16;16;
46839;PMS5003;70678;50.710;5.026;2023-06-14T06:36:24;21;21;
46839;PMS5003;70678;50.710;5.026;2023-06-14T06:38:52;18;18;
46839;PMS5003;70678;50.710;5.026;2023-06-14T06:41:19;18;18;
46839;PMS5003;70678;50.710;5.026;2023-06-14T06:43:47;20;20;
46839;PMS5003;70678;50.710;5.026;2023-06-14T06:46:17;21;21;
46839;PMS5003;70678;50.710;5.026;2023-06-14T06:48:44;18;18;
46839;PMS5003;70678;50.710;5.026;2023-06-14T06:51:13;20;20;
46839;PMS5003;70678;50.710;5.026;2023-06-14T06:53:42;19;19;
46839;PMS5003;70678;50.710;5.026;2023-06-14T06:56:09;18;18;
46839;PMS5003;70678;50.710;5.026;2023-06-14T06:58:38;14;14;
46839;PMS5003;70678;50.710;5.026;2023-06-14T07:01:07;19;19;
46839;PMS5003;70678;50.710;5.026;2023-06-14T07:03:36;17;17;
46839;PMS5003;70678;50.710;5.026;2023-06-14T07:06:04;18;18;
46839;PMS5003;70678;50.710;5.026;2023-06-14T07:08:32;20;20;
46839;PMS5003;70678;50.710;5.026;2023-06-14T07:11:00;13;13;
46839;PMS5003;70678;50.710;5.026;2023-06-14T07:13:27;13;13;
46839;PMS5003;70678;50.710;5.026;2023-06-14T07:15:59;21;21;
46839;PMS5003;70678;50.710;5.026;2023-06-14T07:18:26;16;16;
46839;PMS5003;70678;50.710;5.026;2023-06-14T07:20:56;19;19;
46839;PMS5003;70678;50.710;5.026;2023-06-14T07:23:23;15;15;
46839;PMS5003;70678;50.710;5.026;2023-06-14T07:25:52;13;13;
46839;PMS5003;70678;50.710;5.026;2023-06-14T07:28:20;12;12;
46839;PMS5003;70678;50.710;5.026;2023-06-14T07:30:49;19;19;
46839;PMS5003;70678;50.710;5.026;2023-06-14T07:33:16;17;17;
46839;PMS5003;70678;50.710;5.026;2023-06-14T07:35:45;13;13;
46839;PMS5003;70678;50.710;5.026;2023-06-14T07:38:13;19;19;
46839;PMS5003;70678;50.710;5.026;2023-06-14T07:40:42;14;14;
46839;PMS5003;70678;50.710;5.026;2023-06-14T07:43:11;19;19;
46839;PMS5003;70678;50.710;5.026;2023-06-14T07:45:39;15;15;
46839;PMS5003;70678;50.710;5.026;2023-06-14T07:48:10;13;13;
46839;PMS5003;70678;50.710;5.026;2023-06-14T07:50:40;15;15;
46839;PMS5003;70678;50.710;5.026;2023-06-14T07:53:09;12;12;
46839;PMS5003;70678;50.710;5.026;2023-06-14T07:55:38;13;13;
46839;PMS5003;70678;50.710;5.026;2023-06-14T07:58:08;19;19;
46839;PMS5003;70678;50.710;5.026;2023-06-14T08:00:37;18;18;
46839;PMS5003;70678;50.710;5.026;2023-06-14T08:03:06;15;15;
46839;PMS5003;70678;50.710;5.026;2023-06-14T08:05:33;21;21;
46839;PMS5003;70678;50.710;5.026;2023-06-14T08:08:02;19;19;
46839;PMS5003;70678;50.710;5.026;2023-06-14T08:10:31;16;16;
46839;PMS5003;70678;50.710;5.026;2023-06-14T08:12:59;17;17;
46839;PMS5003;70678;50.710;5.026;2023-06-14T08:15:27;23;23;
46839;PMS5003;70678;50.710;5.026;2023-06-14T08:17:55;20;20;
46839;PMS5003;70678;50.710;5.026;2023-06-14T08:20:23;18;18;
46839;PMS5003;70678;50.710;5.026;2023-06-14T08:22:53;18;18;
46839;PMS5003;70678;50.710;5.026;2023-06-14T08:25:22;15;15;
46839;PMS5003;70678;50.710;5.026;2023-06-14T08:27:51;21;21;
46839;PMS5003;70678;50.710;5.026;2023-06-14T08:30:19;16;16;
46839;PMS5003;70678;50.710;5.026;2023-06-14T08:32:47;21;21;
46839;PMS5003;70678;50.710;5.026;2023-06-14T08:35:16;22;22;
46839;PMS5003;70678;50.710;5.026;2023-06-14T08:37:44;18;18;
46839;PMS5003;70678;50.710;5.026;2023-06-14T08:40:17;23;23;
46839;PMS5003;70678;50.710;5.026;2023-06-14T08:42:47;16;16;
46839;PMS5003;70678;50.710;5.026;2023-06-14T08:45:17;19;19;
46839;PMS5003;70678;50.710;5.026;2023-06-14T08:47:46;14;14;
46839;PMS5003;70678;50.710;5.026;2023-06-14T08:50:17;20;20;
46839;PMS5003;70678;50.710;5.026;2023-06-14T08:52:46;15;15;
46839;PMS5003;70678;50.710;5.026;2023-06-14T08:55:15;16;16;
46839;PMS5003;70678;50.710;5.026;2023-06-14T08:57:42;18;18;
46839;PMS5003;70678;50.710;5.026;2023-06-14T09:00:11;17;17;
46839;PMS5003;70678;50.710;5.026;2023-06-14T09:02:42;12;12;
46839;PMS5003;70678;50.710;5.026;2023-06-14T09:05:10;19;19;
46839;PMS5003;70678;50.710;5.026;2023-06-14T09:07:39;15;15;
46839;PMS5003;70678;50.710;5.026;2023-06-14T09:10:08;18;18;
46839;PMS5003;70678;50.710;5.026;2023-06-14T09:12:38;16;16;
46839;PMS5003;70678;50.710;5.026;2023-06-14T09:15:08;18;18;
46839;PMS5003;70678;50.710;5.026;2023-06-14T09:17:36;12;12;
46839;PMS5003;70678;50.710;5.026;2023-06-14T09:20:07;22;22;
46839;PMS5003;70678;50.710;5.026;2023-06-14T09:22:36;16;16;
46839;PMS5003;70678;50.710;5.026;2023-06-14T09:25:04;18;18;
46839;PMS5003;70678;50.710;5.026;2023-06-14T09:27:35;16;16;
46839;PMS5003;70678;50.710;5.026;2023-06-14T09:30:03;17;17;
46839;PMS5003;70678;50.710;5.026;2023-06-14T09:32:32;11;11;
46839;PMS5003;70678;50.710;5.026;2023-06-14T09:35:04;17;17;
46839;PMS5003;70678;50.710;5.026;2023-06-14T09:37:33;20;20;
46839;PMS5003;70678;50.710;5.026;2023-06-14T09:40:02;21;21;
46839;PMS5003;70678;50.710;5.026;2023-06-14T09:42:31;18;18;
46839;PMS5003;70678;50.710;5.026;2023-06-14T09:44:58;11;11;
46839;PMS5003;70678;50.710;5.026;2023-06-14T09:47:27;12;12;
46839;PMS5003;70678;50.710;5.026;2023-06-14T09:49:56;17;17;
46839;PMS5003;70678;50.710;5.026;2023-06-14T09:52:26;12;12;
46839;PMS5003;70678;50.710;5.026;2023-06-14T09:54:55;12;12;
46839;PMS5003;70678;50.710;5.026;2023-06-14T09:57:24;16;16;
46839;PMS5003;70678;50.710;5.026;2023-06-14T09:59:57;16;16;
46839;PMS5003;70678;50.710;5.026;2023-06-14T10:02:25;16;16;
46839;PMS5003;70678;50.710;5.026;2023-06-14T10:04:56;8;8;
46839;PMS5003;70678;50.710;5.026;2023-06-14T10:07:28;14;14;
46839;PMS5003;70678;50.710;5.026;2023-06-14T10:09:58;14;14;
46839;PMS5003;70678;50.710;5.026;2023-06-14T10:12:26;13;13;
46839;PMS5003;70678;50.710;5.026;2023-06-14T10:14:56;10;10;
46839;PMS5003;70678;50.710;5.026;2023-06-14T10:17:28;12;12;
46839;PMS5003;70678;50.710;5.026;2023-06-14T10:20:13;12;12;
46839;PMS5003;70678;50.710;5.026;2023-06-14T10:22:47;16;16;
46839;PMS5003;70678;50.710;5.026;2023-06-14T10:25:29;15;15;
46839;PMS5003;70678;50.710;5.026;2023-06-14T10:28:03;15;15;
46839;PMS5003;70678;50.710;5.026;2023-06-14T10:31:01;12;12;
46839;PMS5003;70678;50.710;5.026;2023-06-14T10:33:31;15;15;
46839;PMS5003;70678;50.710;5.026;2023-06-14T10:36:31;12;12;
46839;PMS5003;70678;50.710;5.026;2023-06-14T10:39:01;11;11;
46839;PMS5003;70678;50.710;5.026;2023-06-14T10:41:33;16;16;
46839;PMS5003;70678;50.710;5.026;2023-06-14T10:45:07;10;10;
46839;PMS5003;70678;50.710;5.026;2023-06-14T10:47:42;13;13;
46839;PMS5003;70678;50.710;5.026;2023-06-14T10:50:12;7;7;
46839;PMS5003;70678;50.710;5.026;2023-06-14T10:52:42;14;14;
46839;PMS5003;70678;50.710;5.026;2023-06-14T10:55:11;17;17;
46839;PMS5003;70678;50.710;5.026;2023-06-14T10:57:41;10;10;
46839;PMS5003;70678;50.710;5.026;2023-06-14T11:00:10;10;10;
46839;PMS5003;70678;50.710;5.026;2023-06-14T11:02:45;12;12;
46839;PMS5003;70678;50.710;5.026;2023-06-14T11:05:20;12;12;
46839;PMS5003;70678;50.710;5.026;2023-06-14T11:07:58;11;11;
46839;PMS5003;70678;50.710;5.026;2023-06-14T11:10:40;16;16;
46839;PMS5003;70678;50.710;5.026;2023-06-14T11:13:09;8;8;
46839;PMS5003;70678;50.710;5.026;2023-06-14T11:15:38;10;10;
46839;PMS5003;70678;50.710;5.026;2023-06-14T11:18:14;9;9;
46839;PMS5003;70678;50.710;5.026;2023-06-14T11:20:41;11;11;
46839;PMS5003;70678;50.710;5.026;2023-06-14T11:23:09;11;11;
46839;PMS5003;70678;50.710;5.026;2023-06-14T11:25:37;11;11;
46839;PMS5003;70678;50.710;5.026;2023-06-14T11:28:05;11;11;
46839;PMS5003;70678;50.710;5.026;2023-06-14T11:30:32;9;9;
46839;PMS5003;70678;50.710;5.026;2023-06-14T11:33:00;11;11;
46839;PMS5003;70678;50.710;5.026;2023-06-14T11:35:29;12;12;
46839;PMS5003;70678;50.710;5.026;2023-06-14T11:38:01;11;11;
46839;PMS5003;70678;50.710;5.026;2023-06-14T11:40:29;14;14;
46839;PMS5003;70678;50.710;5.026;2023-06-14T11:42:58;15;15;
46839;PMS5003;70678;50.710;5.026;2023-06-14T11:45:26;11;11;
46839;PMS5003;70678;50.710;5.026;2023-06-14T11:47:54;11;11;
46839;PMS5003;70678;50.710;5.026;2023-06-14T11:50:25;15;15;
46839;PMS5003;70678;50.710;5.026;2023-06-14T11:52:56;10;10;
46839;PMS5003;70678;50.710;5.026;2023-06-14T11:55:26;8;8;
46839;PMS5003;70678;50.710;5.026;2023-06-14T11:57:54;10;10;
46839;PMS5003;70678;50.710;5.026;2023-06-14T12:00:24;7;7;
46839;PMS5003;70678;50.710;5.026;2023-06-14T12:02:54;11;11;
46839;PMS5003;70678;50.710;5.026;2023-06-14T12:05:24;9;9;
46839;PMS5003;70678;50.710;5.026;2023-06-14T12:07:57;8;8;
46839;PMS5003;70678;50.710;5.026;2023-06-14T12:10:28;15;15;
46839;PMS5003;70678;50.710;5.026;2023-06-14T12:12:57;12;12;
46839;PMS5003;70678;50.710;5.026;2023-06-14T12:15:27;11;11;
46839;PMS5003;70678;50.710;5.026;2023-06-14T12:17:57;11;11;
46839;PMS5003;70678;50.710;5.026;2023-06-14T12:20:29;10;10;
46839;PMS5003;70678;50.710;5.026;2023-06-14T12:22:57;11;11;
46839;PMS5003;70678;50.710;5.026;2023-06-14T12:25:28;14;14;
46839;PMS5003;70678;50.710;5.026;2023-06-14T12:27:57;6;6;
46839;PMS5003;70678;50.710;5.026;2023-06-14T12:30:26;7;7;
46839;PMS5003;70678;50.710;5.026;2023-06-14T12:32:55;10;10;
46839;PMS5003;70678;50.710;5.026;2023-06-14T12:35:25;10;10;
46839;PMS5003;70678;50.710;5.026;2023-06-14T12:37:54;7;7;
46839;PMS5003;70678;50.710;5.026;2023-06-14T12:40:24;10;10;
46839;PMS5003;70678;50.710;5.026;2023-06-14T12:42:53;5;5;
46839;PMS5003;70678;50.710;5.026;2023-06-14T12:45:22;9;9;
46839;PMS5003;70678;50.710;5.026;2023-06-14T12:47:49;6;6;
46839;PMS5003;70678;50.710;5.026;2023-06-14T12:50:17;10;10;
46839;PMS5003;70678;50.710;5.026;2023-06-14T12:52:45;6;6;
46839;PMS5003;70678;50.710;5.026;2023-06-14T12:55:12;10;10;
46839;PMS5003;70678;50.710;5.026;2023-06-14T12:57:39;8;8;
46839;PMS5003;70678;50.710;5.026;2023-06-14T13:00:09;7;7;
46839;PMS5003;70678;50.710;5.026;2023-06-14T13:02:37;9;9;
46839;PMS5003;70678;50.710;5.026;2023-06-14T13:05:07;10;10;
46839;PMS5003;70678;50.710;5.026;2023-06-14T13:07:35;7;7;
46839;PMS5003;70678;50.710;5.026;2023-06-14T13:10:03;8;8;
46839;PMS5003;70678;50.710;5.026;2023-06-14T13:12:33;5;5;
46839;PMS5003;70678;50.710;5.026;2023-06-14T13:15:02;9;9;
46839;PMS5003;70678;50.710;5.026;2023-06-14T13:17:31;6;6;
46839;PMS5003;70678;50.710;5.026;2023-06-14T13:20:00;8;8;
46839;PMS5003;70678;50.710;5.026;2023-06-14T13:22:29;7;7;
46839;PMS5003;70678;50.710;5.026;2023-06-14T13:24:58;5;5;
46839;PMS5003;70678;50.710;5.026;2023-06-14T13:27:25;5;5;
46839;PMS5003;70678;50.710;5.026;2023-06-14T13:29:53;7;7;
46839;PMS5003;70678;50.710;5.026;2023-06-14T13:32:23;5;5;
46839;PMS5003;70678;50.710;5.026;2023-06-14T13:34:53;7;7;
46839;PMS5003;70678;50.710;5.026;2023-06-14T13:37:22;6;6;
46839;PMS5003;70678;50.710;5.026;2023-06-14T13:39:52;7;7;
46839;PMS5003;70678;50.710;5.026;2023-06-14T13:42:20;6;6;
46839;PMS5003;70678;50.710;5.026;2023-06-14T13:44:47;3;3;
46839;PMS5003;70678;50.710;5.026;2023-06-14T13:47:16;4;4;
46839;PMS5003;70678;50.710;5.026;2023-06-14T13:49:45;0;0;
46839;PMS5003;70678;50.710;5.026;2023-06-14T13:52:15;2;2;
46839;PMS5003;70678;50.710;5.026;2023-06-14T13:54:45;3;3;
46839;PMS5003;70678;50.710;5.026;2023-06-14T13:57:15;3;3;
46839;PMS5003;70678;50.710;5.026;2023-06-14T13:59:45;4;4;
46839;PMS5003;70678;50.710;5.026;2023-06-14T14:02:14;3;3;
46839;PMS5003;70678;50.710;5.026;2023-06-14T14:04:42;2;2;
46839;PMS5003;70678;50.710;5.026;2023-06-14T14:07:09;2;2;
46839;PMS5003;70678;50.710;5.026;2023-06-14T14:09:36;5;5;
46839;PMS5003;70678;50.710;5.026;2023-06-14T14:12:06;2;2;
46839;PMS5003;70678;50.710;5.026;2023-06-14T14:14:37;6;6;
46839;PMS5003;70678;50.710;5.026;2023-06-14T14:17:05;5;5;
46839;PMS5003;70678;50.710;5.026;2023-06-14T14:19:35;4;4;
46839;PMS5003;70678;50.710;5.026;2023-06-14T14:22:03;3;3;
46839;PMS5003;70678;50.710;5.026;2023-06-14T14:24:32;3;3;
46839;PMS5003;70678;50.710;5.026;2023-06-14T14:27:01;1;1;
46839;PMS5003;70678;50.710;5.026;2023-06-14T14:29:30;3;3;
46839;PMS5003;70678;50.710;5.026;2023-06-14T14:31:59;3;3;
46839;PMS5003;70678;50.710;5.026;2023-06-14T14:34:27;4;4;
46839;PMS5003;70678;50.710;5.026;2023-06-14T14:36:55;2;2;
46839;PMS5003;70678;50.710;5.026;2023-06-14T14:39:23;3;3;
46839;PMS5003;70678;50.710;5.026;2023-06-14T14:41:50;3;3;
46839;PMS5003;70678;50.710;5.026;2023-06-14T14:44:18;5;5;
46839;PMS5003;70678;50.710;5.026;2023-06-14T14:46:45;2;2;
46839;PMS5003;70678;50.710;5.026;2023-06-14T14:49:15;3;3;
46839;PMS5003;70678;50.710;5.026;2023-06-14T14:51:45;4;4;
46839;PMS5003;70678;50.710;5.026;2023-06-14T14:54:15;2;2;
46839;PMS5003;70678;50.710;5.026;2023-06-14T14:56:43;3;3;
46839;PMS5003;70678;50.710;5.026;2023-06-14T14:59:11;3;3;
46839;PMS5003;70678;50.710;5.026;2023-06-14T15:01:40;3;3;
46839;PMS5003;70678;50.710;5.026;2023-06-14T15:04:09;2;2;
46839;PMS5003;70678;50.710;5.026;2023-06-14T15:06:38;2;2;
46839;PMS5003;70678;50.710;5.026;2023-06-14T15:09:06;3;3;
46839;PMS5003;70678;50.710;5.026;2023-06-14T15:11:34;6;6;
46839;PMS5003;70678;50.710;5.026;2023-06-14T15:14:02;4;4;
46839;PMS5003;70678;50.710;5.026;2023-06-14T15:16:31;2;2;
46839;PMS5003;70678;50.710;5.026;2023-06-14T15:18:59;2;2;
46839;PMS5003;70678;50.710;5.026;2023-06-14T15:21:29;6;6;
46839;PMS5003;70678;50.710;5.026;2023-06-14T15:23:58;2;2;
46839;PMS5003;70678;50.710;5.026;2023-06-14T15:26:27;3;3;
46839;PMS5003;70678;50.710;5.026;2023-06-14T15:28:57;3;3;
46839;PMS5003;70678;50.710;5.026;2023-06-14T15:31:24;6;6;
46839;PMS5003;70678;50.710;5.026;2023-06-14T15:33:55;6;6;
46839;PMS5003;70678;50.710;5.026;2023-06-14T15:36:25;3;3;
46839;PMS5003;70678;50.710;5.026;2023-06-14T15:38:55;5;5;
46839;PMS5003;70678;50.710;5.026;2023-06-14T15:41:25;2;2;
46839;PMS5003;70678;50.710;5.026;2023-06-14T15:43:55;3;3;
46839;PMS5003;70678;50.710;5.026;2023-06-14T15:46:25;3;3;
46839;PMS5003;70678;50.710;5.026;2023-06-14T15:48:54;3;3;
46839;PMS5003;70678;50.710;5.026;2023-06-14T15:51:24;0;0;
46839;PMS5003;70678;50.710;5.026;2023-06-14T15:53:52;4;4;
46839;PMS5003;70678;50.710;5.026;2023-06-14T15:56:21;3;3;
46839;PMS5003;70678;50.710;5.026;2023-06-14T15:58:48;5;5;
46839;PMS5003;70678;50.710;5.026;2023-06-14T16:01:17;2;2;
46839;PMS5003;70678;50.710;5.026;2023-06-14T16:03:47;2;2;
46839;PMS5003;70678;50.710;5.026;2023-06-14T16:06:15;2;2;
46839;PMS5003;70678;50.710;5.026;2023-06-14T16:08:44;4;4;
46839;PMS5003;70678;50.710;5.026;2023-06-14T16:11:14;8;8;
46839;PMS5003;70678;50.710;5.026;2023-06-14T16:13:42;3;3;
46839;PMS5003;70678;50.710;5.026;2023-06-14T16:16:12;3;3;
46839;PMS5003;70678;50.710;5.026;2023-06-14T16:18:40;4;4;
46839;PMS5003;70678;50.710;5.026;2023-06-14T16:21:07;4;4;
46839;PMS5003;70678;50.710;5.026;2023-06-14T16:23:36;3;3;
46839;PMS5003;70678;50.710;5.026;2023-06-14T16:26:04;3;3;
46839;PMS5003;70678;50.710;5.026;2023-06-14T16:28:36;4;4;
46839;PMS5003;70678;50.710;5.026;2023-06-14T16:31:03;1;1;
46839;PMS5003;70678;50.710;5.026;2023-06-14T16:33:31;3;3;
46839;PMS5003;70678;50.710;5.026;2023-06-14T16:35:58;1;1;
46839;PMS5003;70678;50.710;5.026;2023-06-14T16:38:26;4;4;